Time;durP1;ratioP1;P1;durP2;ratioP2;P2;SDS_P1;SDS_P2;PMS_P1;PMS_P2;Temp;Humidity;BMP_temperature;BMP_pressure;BME280_temperature;BME280_humidity;BME280_pressure;Samples;Min_cycle;Max_cycle;Signal;HPM_P1;HPM_P2
2021/07/29 00:00:55;;;;;;;12.70;5.70;;;16.40;86.50;;;;;;5052817;28;20392;-36
2021/07/29 00:03:21;;;;;;;8.93;5.28;;;16.40;86.60;;;;;;5052610;28;20025;-37
2021/07/29 00:05:48;;;;;;;8.73;4.72;;;16.40;86.70;;;;;;5052678;28;20044;-37
2021/07/29 00:08:14;;;;;;;5.72;4.35;;;16.30;86.10;;;;;;5052651;28;20033;-37
2021/07/29 00:10:39;;;;;;;10.18;6.68;;;16.30;86.60;;;;;;5052731;28;20036;-36
2021/07/29 00:13:05;;;;;;;7.82;4.60;;;16.30;86.50;;;;;;5054427;28;20082;-40
2021/07/29 00:15:31;;;;;;;7.93;4.35;;;16.30;86.70;;;;;;5056898;28;20128;-37
2021/07/29 00:20:25;;;;;;;10.02;4.47;;;16.30;86.60;;;;;;5056761;28;20052;-38
2021/07/29 00:22:53;;;;;;;5.93;4.22;;;16.10;87.20;;;;;;5056792;28;20021;-38
2021/07/29 00:25:20;;;;;;;5.68;4.28;;;16.20;86.80;;;;;;5057009;28;20385;-37
2021/07/29 00:27:46;;;;;;;6.70;4.07;;;16.20;86.50;;;;;;5055402;28;20427;-38
2021/07/29 00:30:13;;;;;;;8.32;4.72;;;16.10;86.90;;;;;;5056635;28;20133;-37
2021/07/29 00:32:40;;;;;;;6.05;3.42;;;16.10;87.70;;;;;;5056574;28;20095;-37
2021/07/29 00:35:08;;;;;;;5.00;4.00;;;16.10;87.90;;;;;;5056624;28;20103;-37
2021/07/29 00:37:34;;;;;;;8.18;4.57;;;16.00;87.50;;;;;;5056857;28;20372;-38
2021/07/29 00:40:00;;;;;;;6.13;3.60;;;16.20;87.10;;;;;;5056801;28;20159;-37
2021/07/29 00:42:26;;;;;;;10.30;4.68;;;16.20;87.20;;;;;;5057033;28;20017;-37
2021/07/29 00:44:52;;;;;;;5.00;3.83;;;16.20;86.30;;;;;;5055348;28;20036;-36
2021/07/29 00:47:19;;;;;;;5.88;3.85;;;16.20;86.80;;;;;;5056481;28;20043;-38
2021/07/29 00:49:47;;;;;;;6.30;4.10;;;16.10;87.10;;;;;;5056506;28;20029;-37
2021/07/29 00:52:21;;;;;;;6.80;3.67;;;16.20;86.80;;;;;;5056287;28;20123;-36
2021/07/29 00:54:48;;;;;;;11.95;4.55;;;16.20;86.50;;;;;;5056665;28;20470;-37
2021/07/29 00:57:15;;;;;;;4.63;3.10;;;16.00;87.20;;;;;;5056415;28;20078;-37
2021/07/29 00:59:40;;;;;;;5.85;3.17;;;16.00;86.90;;;;;;5056141;28;20025;-38
2021/07/29 01:02:06;;;;;;;7.07;3.65;;;16.00;86.80;;;;;;5056120;28;20032;-36
2021/07/29 01:04:32;;;;;;;5.78;3.70;;;16.10;87.30;;;;;;5056189;28;20025;-36
2021/07/29 01:06:58;;;;;;;6.57;4.10;;;16.10;86.50;;;;;;5054951;28;20491;-37
2021/07/29 01:09:24;;;;;;;17.38;2.28;;;16.20;86.00;;;;;;5056246;28;20029;-37
2021/07/29 01:11:50;;;;;;;4.07;2.80;;;16.10;85.50;;;;;;5055738;28;20053;-38
2021/07/29 01:14:16;;;;;;;5.43;3.85;;;16.10;85.70;;;;;;5055572;28;20025;-38
2021/07/29 01:16:42;;;;;;;5.60;3.58;;;16.00;85.80;;;;;;5055464;28;20032;-36
2021/07/29 01:19:10;;;;;;;6.35;3.72;;;16.00;85.20;;;;;;5055488;28;20017;-38
2021/07/29 01:21:37;;;;;;;4.25;3.05;;;16.10;85.00;;;;;;5055709;28;20512;-36
2021/07/29 01:24:03;;;;;;;8.68;3.40;;;16.20;84.60;;;;;;5055737;28;20025;-36
2021/07/29 01:26:29;;;;;;;2.58;2.28;;;16.30;83.50;;;;;;5054152;28;20033;-37
2021/07/29 01:28:56;;;;;;;6.43;3.08;;;16.20;82.10;;;;;;5055544;28;20538;-37
2021/07/29 01:31:22;;;;;;;6.18;3.45;;;16.30;83.10;;;;;;5055329;28;20048;-37
2021/07/29 01:33:48;;;;;;;5.75;3.63;;;16.30;82.80;;;;;;5055229;28;20043;-37
2021/07/29 01:36:14;;;;;;;6.65;3.25;;;16.30;83.00;;;;;;5055542;28;20104;-37
2021/07/29 01:38:40;;;;;;;5.75;3.17;;;16.30;82.90;;;;;;5055787;28;20102;-37
2021/07/29 01:41:05;;;;;;;4.50;3.10;;;16.30;83.70;;;;;;5055427;28;20025;-37
2021/07/29 01:43:32;;;;;;;8.13;3.20;;;16.20;83.70;;;;;;5055410;28;20040;-37
2021/07/29 01:45:59;;;;;;;4.70;2.80;;;16.10;83.70;;;;;;5055773;28;20037;-37
2021/07/29 01:48:25;;;;;;;6.53;3.15;;;16.10;83.70;;;;;;5055319;28;20029;-37
2021/07/29 01:50:52;;;;;;;7.20;3.90;;;16.10;83.90;;;;;;5055706;28;20021;-37
2021/07/29 01:53:17;;;;;;;6.53;3.28;;;16.00;84.70;;;;;;5055608;28;20029;-37
2021/07/29 01:55:44;;;;;;;4.88;3.10;;;16.00;84.10;;;;;;5055137;28;20021;-36
2021/07/29 01:58:11;;;;;;;6.82;3.13;;;16.00;84.30;;;;;;5055014;28;20051;-37
2021/07/29 02:00:38;;;;;;;5.15;3.13;;;16.00;84.40;;;;;;5055056;28;20108;-37
2021/07/29 02:03:04;;;;;;;5.32;2.65;;;15.90;84.50;;;;;;5055029;28;20032;-36
2021/07/29 02:05:30;;;;;;;12.80;4.82;;;15.80;84.40;;;;;;5055295;28;20392;-37
2021/07/29 02:07:59;;;;;;;6.63;3.60;;;15.90;84.40;;;;;;5054910;28;20033;-37
2021/07/29 02:10:26;;;;;;;3.88;2.88;;;15.90;84.50;;;;;;5054850;28;20024;-37
2021/07/29 02:12:53;;;;;;;8.80;3.90;;;15.90;83.90;;;;;;5054714;28;20043;-37
2021/07/29 02:15:19;;;;;;;6.93;2.72;;;15.90;84.20;;;;;;5054924;28;20479;-37
2021/07/29 02:17:44;;;;;;;4.95;3.28;;;15.90;84.00;;;;;;5054907;28;20485;-37
2021/07/29 02:20:11;;;;;;;6.70;3.10;;;15.90;84.50;;;;;;5053296;28;20061;-37
2021/07/29 02:22:37;;;;;;;7.35;3.08;;;15.80;84.50;;;;;;5053255;28;20036;-37
2021/07/29 02:25:05;;;;;;;6.13;3.25;;;15.80;84.10;;;;;;5054641;28;20037;-37
2021/07/29 02:27:31;;;;;;;5.63;3.40;;;15.80;84.50;;;;;;5054532;28;20023;-37
2021/07/29 02:29:57;;;;;;;3.90;2.58;;;15.70;84.50;;;;;;5054539;28;20083;-37
2021/07/29 02:32:23;;;;;;;8.60;2.75;;;15.70;83.90;;;;;;5055320;28;20029;-37
2021/07/29 02:34:50;;;;;;;4.40;2.55;;;15.70;84.30;;;;;;5053917;28;20107;-37
2021/07/29 02:37:16;;;;;;;4.55;2.75;;;15.70;84.10;;;;;;5053024;28;20072;-37
2021/07/29 02:39:41;;;;;;;6.10;3.30;;;15.60;84.10;;;;;;5054632;28;20045;-37
2021/07/29 02:42:07;;;;;;;6.63;2.88;;;15.70;84.50;;;;;;5054249;28;20108;-37
2021/07/29 02:44:34;;;;;;;6.95;3.03;;;15.60;84.00;;;;;;5054299;28;20025;-37
2021/07/29 02:47:00;;;;;;;5.07;3.05;;;15.70;84.20;;;;;;5054458;28;20548;-37
2021/07/29 02:49:26;;;;;;;6.47;3.67;;;15.60;84.60;;;;;;5054384;28;20107;-37
2021/07/29 02:51:51;;;;;;;3.83;3.08;;;15.60;84.00;;;;;;5053997;28;20032;-37
2021/07/29 02:54:17;;;;;;;4.38;2.95;;;15.60;83.90;;;;;;5053845;28;20047;-37
2021/07/29 02:56:43;;;;;;;5.70;3.10;;;15.70;83.60;;;;;;5053923;28;20025;-37
2021/07/29 02:59:08;;;;;;;6.53;3.35;;;15.60;83.70;;;;;;5054256;28;20024;-37
2021/07/29 03:01:34;;;;;;;4.63;3.10;;;15.60;84.00;;;;;;5052670;28;20029;-37
2021/07/29 03:04:00;;;;;;;5.00;3.33;;;15.60;83.80;;;;;;5053993;28;20032;-37
2021/07/29 03:06:25;;;;;;;8.65;3.47;;;15.60;84.40;;;;;;5054040;28;20040;-37
2021/07/29 03:08:51;;;;;;;8.55;3.28;;;15.50;84.30;;;;;;5054210;28;20032;-37
2021/07/29 03:11:17;;;;;;;4.75;3.05;;;15.50;84.20;;;;;;5053999;28;20044;-37
2021/07/29 03:13:42;;;;;;;5.30;3.60;;;15.50;84.60;;;;;;5053664;28;20492;-37
2021/07/29 03:16:08;;;;;;;7.20;3.85;;;15.40;85.10;;;;;;5053625;28;20497;-37
2021/07/29 03:18:34;;;;;;;11.40;2.83;;;15.40;85.10;;;;;;5053660;28;20047;-37
2021/07/29 03:21:00;;;;;;;6.35;3.03;;;15.40;85.30;;;;;;5053607;28;20031;-37
2021/07/29 03:23:27;;;;;;;9.20;3.97;;;15.40;85.10;;;;;;5053485;28;20393;-37
2021/07/29 03:25:53;;;;;;;8.35;4.18;;;15.40;85.20;;;;;;5053490;28;20029;-37
2021/07/29 03:28:20;;;;;;;10.80;3.78;;;15.30;85.30;;;;;;5053908;28;20029;-37
2021/07/29 03:30:46;;;;;;;15.80;3.45;;;15.40;85.40;;;;;;5053138;28;20116;-38
2021/07/29 03:33:12;;;;;;;8.98;3.97;;;15.30;85.50;;;;;;5053451;28;20142;-37
2021/07/29 03:35:40;;;;;;;6.47;3.78;;;15.30;85.40;;;;;;5053254;28;20053;-37
2021/07/29 03:38:06;;;;;;;9.70;4.57;;;15.30;85.20;;;;;;5053514;28;20096;-37
2021/07/29 03:40:33;;;;;;;6.53;3.53;;;15.30;85.30;;;;;;5053407;28;20017;-37
2021/07/29 03:43:02;;;;;;;8.50;3.60;;;15.30;85.50;;;;;;5053520;28;20028;-37
2021/07/29 03:45:40;;;;;;;5.07;3.45;;;15.30;85.50;;;;;;5053531;28;20037;-37
2021/07/29 03:48:06;;;;;;;6.75;3.50;;;15.30;85.20;;;;;;5052425;28;20021;-37
2021/07/29 03:50:32;;;;;;;5.78;3.75;;;15.30;85.30;;;;;;5053020;28;20032;-37
2021/07/29 03:52:58;;;;;;;11.48;4.20;;;15.30;85.10;;;;;;5052973;28;20032;-37
2021/07/29 03:55:23;;;;;;;11.18;5.00;;;15.30;84.70;;;;;;5053304;28;20495;-37
2021/07/29 03:57:49;;;;;;;5.68;3.38;;;15.40;84.10;;;;;;5053057;28;20025;-37
2021/07/29 04:00:15;;;;;;;10.45;3.55;;;15.60;83.60;;;;;;5053205;28;20027;-37
2021/07/29 04:02:42;;;;;;;9.73;3.50;;;15.50;83.40;;;;;;5052998;28;20025;-37
2021/07/29 04:05:08;;;;;;;14.55;4.03;;;15.60;83.30;;;;;;5053132;28;20067;-36
2021/07/29 04:07:34;;;;;;;9.50;4.50;;;15.60;83.50;;;;;;5052760;28;20111;-38
2021/07/29 04:10:00;;;;;;;8.48;4.00;;;15.60;83.00;;;;;;5052900;28;20480;-38
2021/07/29 04:12:26;;;;;;;7.78;3.55;;;15.60;82.70;;;;;;5053019;28;20051;-36
2021/07/29 04:14:52;;;;;;;8.00;3.75;;;15.70;82.40;;;;;;5052929;28;20028;-37
2021/07/29 04:17:18;;;;;;;7.68;3.60;;;15.80;82.00;;;;;;5052784;28;20039;-37
2021/07/29 04:19:45;;;;;;;7.82;3.47;;;15.80;81.60;;;;;;5052984;28;20457;-37
2021/07/29 04:22:10;;;;;;;13.75;3.78;;;15.80;81.50;;;;;;5052692;28;20103;-36
2021/07/29 04:24:37;;;;;;;7.47;3.08;;;15.80;80.80;;;;;;5052752;28;20025;-37
2021/07/29 04:27:03;;;;;;;9.32;3.40;;;16.00;80.60;;;;;;5052788;28;20029;-36
2021/07/29 04:29:32;;;;;;;6.43;2.38;;;16.00;80.70;;;;;;5052381;28;20028;-37
2021/07/29 04:31:58;;;;;;;13.88;3.95;;;16.00;80.50;;;;;;5052298;28;20129;-37
2021/07/29 04:34:24;;;;;;;10.00;3.55;;;16.00;80.50;;;;;;5052419;28;20064;-37
2021/07/29 04:36:52;;;;;;;7.40;4.25;;;16.00;80.90;;;;;;5052494;28;20029;-37
2021/07/29 04:39:18;;;;;;;14.50;4.68;;;16.00;80.90;;;;;;5053207;28;20112;-37
2021/07/29 04:41:45;;;;;;;11.93;3.28;;;15.90;81.20;;;;;;5052716;28;20456;-37
2021/07/29 04:44:12;;;;;;;9.45;4.57;;;15.90;81.30;;;;;;5052707;28;20041;-36
2021/07/29 04:46:39;;;;;;;10.10;4.70;;;15.80;81.40;;;;;;5051126;28;20033;-36
2021/07/29 04:49:08;;;;;;;9.52;4.10;;;15.90;81.30;;;;;;5052508;28;20044;-36
2021/07/29 04:51:36;;;;;;;10.20;3.50;;;15.90;81.40;;;;;;5052124;28;20503;-37
2021/07/29 04:54:02;;;;;;;13.30;4.65;;;15.90;81.70;;;;;;5052040;28;20051;-37
2021/07/29 04:56:28;;;;;;;6.20;4.00;;;16.00;81.10;;;;;;5052183;28;20036;-37
2021/07/29 04:58:54;;;;;;;11.73;4.07;;;16.00;80.50;;;;;;5053723;28;20402;-37
2021/07/29 05:01:20;;;;;;;12.18;4.32;;;16.20;80.00;;;;;;5055725;28;20025;-37
2021/07/29 05:03:46;;;;;;;12.98;4.00;;;16.20;80.20;;;;;;5055863;28;20025;-37
2021/07/29 05:06:12;;;;;;;9.10;4.05;;;16.30;79.50;;;;;;5056109;28;20029;-36
2021/07/29 05:08:38;;;;;;;6.65;3.60;;;16.30;79.90;;;;;;5056300;28;20075;-37
2021/07/29 05:11:05;;;;;;;14.13;4.35;;;16.30;79.80;;;;;;5054826;28;20025;-37
2021/07/29 05:13:32;;;;;;;16.23;3.75;;;16.30;79.90;;;;;;5055722;28;20025;-36
2021/07/29 05:15:59;;;;;;;8.95;3.75;;;16.30;80.50;;;;;;5055833;28;20044;-36
2021/07/29 05:18:25;;;;;;;6.88;3.60;;;16.30;80.80;;;;;;5056374;28;20096;-37
2021/07/29 05:20:50;;;;;;;8.70;3.47;;;16.40;80.40;;;;;;5056101;28;20100;-37
2021/07/29 05:23:16;;;;;;;12.75;4.28;;;16.40;79.80;;;;;;5055624;28;20025;-37
2021/07/29 05:25:42;;;;;;;4.35;2.92;;;16.50;80.20;;;;;;5055521;28;20083;-37
2021/07/29 05:28:08;;;;;;;7.07;3.60;;;16.40;79.50;;;;;;5055359;28;20037;-37
2021/07/29 05:30:37;;;;;;;11.45;3.47;;;16.40;80.00;;;;;;5055505;28;20041;-37
2021/07/29 05:33:04;;;;;;;5.90;2.92;;;16.40;79.00;;;;;;5056480;28;20040;-38
2021/07/29 05:35:30;;;;;;;6.80;3.67;;;16.50;77.90;;;;;;5055317;28;20067;-37
2021/07/29 05:37:56;;;;;;;7.68;2.55;;;16.40;77.90;;;;;;5055018;28;20032;-36
2021/07/29 05:40:22;;;;;;;7.50;2.80;;;16.30;78.00;;;;;;5054934;28;20025;-37
2021/07/29 05:42:47;;;;;;;21.23;3.63;;;16.30;78.20;;;;;;5054896;28;20033;-37
2021/07/29 05:45:13;;;;;;;7.25;3.40;;;16.30;78.40;;;;;;5055011;28;20473;-37
2021/07/29 05:47:38;;;;;;;10.70;3.17;;;16.20;78.00;;;;;;5054907;28;20040;-37
2021/07/29 05:50:05;;;;;;;7.32;2.33;;;16.30;77.70;;;;;;5054023;28;20021;-36
2021/07/29 05:52:30;;;;;;;8.35;2.78;;;16.30;77.10;;;;;;5054851;28;20021;-36
2021/07/29 05:54:56;;;;;;;13.02;2.80;;;16.40;77.10;;;;;;5054972;28;20033;-38
2021/07/29 05:57:22;;;;;;;10.23;3.22;;;16.40;76.40;;;;;;5054959;28;20048;-37
2021/07/29 05:59:47;;;;;;;9.43;3.50;;;16.40;75.90;;;;;;5054793;28;20048;-37
2021/07/29 06:02:13;;;;;;;8.68;3.13;;;16.50;75.50;;;;;;5055180;28;20051;-37
2021/07/29 06:04:38;;;;;;;7.95;2.85;;;16.40;75.60;;;;;;5055177;28;20025;-36
2021/07/29 06:07:04;;;;;;;9.38;3.10;;;16.50;75.20;;;;;;5054786;28;20183;-35
2021/07/29 06:09:30;;;;;;;10.00;2.63;;;16.50;75.20;;;;;;5054196;28;20029;-36
2021/07/29 06:11:57;;;;;;;5.22;2.53;;;16.50;75.00;;;;;;5054218;28;20156;-37
2021/07/29 06:14:22;;;;;;;7.70;2.67;;;16.50;75.20;;;;;;5054652;28;20036;-37
2021/07/29 06:16:48;;;;;;;9.27;2.78;;;16.70;74.80;;;;;;5054823;28;20426;-37
2021/07/29 06:21:43;;;;;;;10.73;4.60;;;16.90;74.10;;;;;;5054256;28;20380;-36
2021/07/29 06:24:08;;;;;;;10.18;2.63;;;16.70;74.00;;;;;;5054301;28;20035;-37
2021/07/29 06:26:34;;;;;;;8.27;2.35;;;16.80;73.70;;;;;;5054030;28;20031;-37
2021/07/29 06:29:00;;;;;;;9.55;2.80;;;16.70;73.70;;;;;;5054292;28;20388;-36
2021/07/29 06:31:26;;;;;;;6.28;2.08;;;16.70;73.60;;;;;;5053038;28;20405;-36
2021/07/29 06:33:51;;;;;;;8.10;3.15;;;16.70;73.80;;;;;;5053055;28;20029;-36
2021/07/29 06:36:17;;;;;;;5.90;3.10;;;16.80;72.90;;;;;;5054151;28;20033;-37
2021/07/29 06:38:43;;;;;;;5.97;3.25;;;16.80;71.80;;;;;;5054546;28;20029;-37
2021/07/29 06:41:09;;;;;;;8.93;2.45;;;16.90;71.80;;;;;;5054040;28;20027;-37
2021/07/29 06:43:36;;;;;;;3.85;2.33;;;16.80;72.00;;;;;;5053850;28;20025;-37
2021/07/29 06:46:09;;;;;;;10.65;2.65;;;16.80;72.40;;;;;;5053794;28;20036;-37
2021/07/29 06:48:36;;;;;;;8.30;3.03;;;17.00;71.10;;;;;;5054137;28;20024;-37
2021/07/29 06:51:05;;;;;;;7.38;2.80;;;17.10;71.30;;;;;;5053727;28;20040;-37
2021/07/29 06:53:32;;;;;;;8.75;2.33;;;17.30;71.20;;;;;;5053018;28;20469;-37
2021/07/29 06:56:01;;;;;;;5.30;2.20;;;17.40;70.40;;;;;;5053830;28;20035;-37
2021/07/29 06:58:27;;;;;;;7.35;2.60;;;17.40;69.90;;;;;;5053326;28;20029;-42
2021/07/29 07:00:53;;;;;;;6.05;2.63;;;17.20;69.90;;;;;;5053688;28;20033;-37
2021/07/29 07:03:19;;;;;;;5.80;2.53;;;17.30;69.60;;;;;;5053730;28;20035;-37
2021/07/29 07:05:47;;;;;;;5.40;2.03;;;17.30;69.00;;;;;;5053073;28;20056;-37
2021/07/29 07:08:14;;;;;;;6.72;2.53;;;17.30;68.80;;;;;;5053983;28;20071;-37
2021/07/29 07:10:40;;;;;;;5.03;2.17;;;17.30;68.30;;;;;;5053392;28;20155;-38
2021/07/29 07:13:06;;;;;;;7.55;3.58;;;17.30;68.30;;;;;;5053591;28;20047;-38
2021/07/29 07:15:32;;;;;;;6.20;2.38;;;17.10;68.80;;;;;;5053245;28;20029;-37
2021/07/29 07:17:57;;;;;;;9.70;2.40;;;17.20;68.50;;;;;;5053266;28;20021;-38
2021/07/29 07:20:26;;;;;;;8.15;2.80;;;17.40;67.80;;;;;;5052665;28;20472;-37
2021/07/29 07:22:53;;;;;;;10.85;2.25;;;17.50;67.40;;;;;;5052852;28;20104;-37
2021/07/29 07:25:19;;;;;;;7.97;2.63;;;17.50;66.70;;;;;;5052933;28;20029;-37
2021/07/29 07:27:45;;;;;;;11.35;2.65;;;17.80;66.40;;;;;;5052935;28;20579;-37
2021/07/29 07:30:11;;;;;;;7.40;2.47;;;17.70;66.00;;;;;;5052731;28;20049;-37
2021/07/29 07:32:37;;;;;;;6.53;2.17;;;17.70;66.60;;;;;;5052346;28;20372;-36
2021/07/29 07:35:04;;;;;;;8.50;2.53;;;17.60;65.90;;;;;;5053133;28;20021;-37
2021/07/29 07:37:31;;;;;;;10.40;2.03;;;17.70;66.40;;;;;;5053144;28;20096;-37
2021/07/29 07:39:56;;;;;;;10.07;2.53;;;17.60;66.80;;;;;;5053048;28;20032;-36
2021/07/29 07:42:22;;;;;;;6.30;2.08;;;17.60;65.60;;;;;;5053621;28;20120;-37
2021/07/29 07:44:52;;;;;;;8.30;1.67;;;17.80;66.00;;;;;;5053251;28;20049;-37
2021/07/29 07:47:18;;;;;;;13.05;3.35;;;18.00;64.30;;;;;;5053958;28;20025;-38
2021/07/29 07:49:43;;;;;;;7.55;2.22;;;18.00;63.60;;;;;;5053216;28;20098;-36
2021/07/29 07:52:09;;;;;;;4.45;1.55;;;17.80;63.40;;;;;;5052529;28;20036;-37
2021/07/29 07:54:36;;;;;;;7.10;1.75;;;18.00;63.30;;;;;;5052636;28;20477;-37
2021/07/29 07:57:06;;;;;;;10.25;2.30;;;17.80;64.70;;;;;;5053493;28;20025;-37
2021/07/29 07:59:36;;;;;;;7.85;3.92;;;18.40;62.90;;;;;;5053226;28;20068;-36
2021/07/29 08:02:03;;;;;;;11.32;2.45;;;18.70;61.30;;;;;;5053182;28;20030;-36
2021/07/29 08:04:29;;;;;;;8.25;2.05;;;18.60;61.90;;;;;;5051647;28;20025;-36
2021/07/29 08:06:55;;;;;;;8.48;2.20;;;18.80;61.00;;;;;;5035557;28;20029;-36
2021/07/29 08:09:20;;;;;;;7.82;2.30;;;18.80;60.80;;;;;;5053078;28;20021;-36
2021/07/29 08:11:46;;;;;;;6.85;2.10;;;18.80;61.60;;;;;;5053448;28;20104;-36
2021/07/29 08:14:11;;;;;;;4.10;1.77;;;19.30;60.00;;;;;;5052704;28;20029;-36
2021/07/29 08:16:37;;;;;;;4.20;1.90;;;19.10;60.10;;;;;;5052778;28;20048;-39
2021/07/29 08:19:03;;;;;;;8.73;2.40;;;19.00;60.40;;;;;;5053029;28;20350;-36
2021/07/29 08:21:29;;;;;;;8.88;2.20;;;18.80;59.50;;;;;;5051068;28;20025;-37
2021/07/29 08:23:55;;;;;;;6.57;2.22;;;19.30;58.30;;;;;;5052847;28;20025;-36
2021/07/29 08:26:20;;;;;;;6.57;2.17;;;18.70;60.20;;;;;;5052585;28;20036;-36
2021/07/29 08:28:46;;;;;;;5.30;1.70;;;19.10;59.10;;;;;;5052905;28;20060;-37
2021/07/29 08:31:14;;;;;;;12.90;2.25;;;18.80;60.50;;;;;;5052308;28;20121;-40
2021/07/29 08:33:40;;;;;;;7.40;3.20;;;18.50;61.60;;;;;;5054220;28;20136;-37
2021/07/29 08:36:15;;;;;;;7.75;3.88;;;18.80;60.40;;;;;;5056505;28;20055;-37
2021/07/29 08:38:42;;;;;;;11.52;2.33;;;19.20;59.90;;;;;;5056518;28;20333;-37
2021/07/29 08:41:08;;;;;;;4.82;1.92;;;19.60;58.30;;;;;;5055918;28;20032;-37
2021/07/29 08:43:35;;;;;;;7.97;2.10;;;19.30;57.70;;;;;;5056311;28;20034;-37
2021/07/29 08:46:07;;;;;;;14.73;3.00;;;19.50;56.50;;;;;;5054717;28;20029;-37
2021/07/29 08:48:36;;;;;;;12.13;2.00;;;19.50;57.00;;;;;;5056767;28;20025;-37
2021/07/29 08:51:04;;;;;;;10.43;3.03;;;19.20;57.50;;;;;;5054948;28;20147;-37
2021/07/29 08:53:30;;;;;;;5.75;1.90;;;18.90;57.50;;;;;;5038231;28;20385;-37
2021/07/29 08:55:56;;;;;;;5.97;2.15;;;18.80;57.10;;;;;;5055890;28;20028;-37
2021/07/29 08:58:22;;;;;;;7.70;2.38;;;19.20;57.10;;;;;;5056181;28;20029;-37
2021/07/29 09:01:09;;;;;;;15.63;2.85;;;18.90;57.50;;;;;;5055714;28;20075;-36
2021/07/29 09:03:39;;;;;;;4.45;2.28;;;19.10;57.70;;;;;;5056036;28;20044;-36
2021/07/29 09:06:15;;;;;;;9.25;2.10;;;20.00;55.50;;;;;;5055767;28;20029;-36
2021/07/29 09:08:45;;;;;;;7.18;2.50;;;20.10;55.00;;;;;;5056434;28;20107;-36
2021/07/29 09:11:27;;;;;;;7.63;2.58;;;19.60;56.70;;;;;;5056120;28;20025;-36
2021/07/29 09:14:13;;;;;;;8.38;2.78;;;19.30;55.30;;;;;;5055410;28;20074;-43
2021/07/29 09:17:09;;;;;;;8.45;2.28;;;19.40;56.30;;;;;;5055751;28;20070;-38
2021/07/29 09:19:37;;;;;;;6.75;2.53;;;19.80;55.10;;;;;;5055641;28;20202;-37
2021/07/29 09:22:10;;;;;;;6.75;2.60;;;20.30;54.10;;;;;;5055439;28;20024;-38
2021/07/29 09:25:00;;;;;;;8.45;2.42;;;20.10;54.30;;;;;;5055384;28;20036;-38
2021/07/29 09:27:39;;;;;;;5.30;2.00;;;20.00;53.80;;;;;;5055366;28;20032;-38
2021/07/29 09:30:16;;;;;;;9.88;2.40;;;19.30;54.70;;;;;;5055134;28;20501;-37
2021/07/29 09:32:52;;;;;;;7.75;2.03;;;19.30;55.50;;;;;;5055652;28;20362;-37
2021/07/29 09:35:29;;;;;;;3.63;1.67;;;19.60;54.70;;;;;;5055275;28;20025;-37
2021/07/29 09:37:55;;;;;;;4.60;1.65;;;19.70;53.90;;;;;;5055285;28;20476;-37
2021/07/29 09:40:21;;;;;;;6.45;2.38;;;20.10;53.00;;;;;;5055000;28;20052;-37
2021/07/29 09:43:16;;;;;;;5.18;2.13;;;20.00;53.00;;;;;;5053384;28;20025;-37
2021/07/29 09:45:44;;;;;;;6.70;1.60;;;19.80;53.80;;;;;;5051885;28;20174;-37
2021/07/29 09:48:11;;;;;;;10.15;2.20;;;19.80;53.50;;;;;;5054852;28;20108;-37
2021/07/29 09:50:38;;;;;;;8.50;2.22;;;19.60;52.80;;;;;;5054686;28;20051;-37
2021/07/29 09:53:04;;;;;;;9.27;2.97;;;19.50;53.00;;;;;;5054767;28;20358;-38
2021/07/29 09:55:31;;;;;;;7.00;2.15;;;19.50;53.50;;;;;;5054501;28;20062;-37
2021/07/29 09:58:00;;;;;;;8.48;2.42;;;19.80;52.20;;;;;;5053896;28;20033;-37
2021/07/29 10:00:26;;;;;;;7.07;2.05;;;19.90;52.30;;;;;;5054589;28;20107;-38
2021/07/29 10:02:54;;;;;;;4.13;1.95;;;19.80;53.00;;;;;;5054602;28;20120;-37
2021/07/29 10:05:37;;;;;;;11.45;2.80;;;19.40;54.10;;;;;;5054457;28;20067;-39
2021/07/29 10:08:05;;;;;;;5.75;2.20;;;19.80;53.60;;;;;;5054290;28;20031;-37
2021/07/29 10:10:31;;;;;;;6.82;2.33;;;19.90;53.30;;;;;;5054290;28;20104;-37
2021/07/29 10:12:57;;;;;;;10.30;2.63;;;20.70;51.40;;;;;;5053986;28;20167;-37
2021/07/29 10:15:40;;;;;;;4.30;1.80;;;21.20;48.60;;;;;;5053853;28;20033;-38
2021/07/29 10:18:11;;;;;;;10.32;2.90;;;21.40;48.30;;;;;;5054441;28;20102;-37
2021/07/29 10:20:39;;;;;;;8.20;2.55;;;21.30;48.50;;;;;;5053679;28;20021;-38
2021/07/29 10:23:14;;;;;;;3.22;2.10;;;20.70;51.00;;;;;;5052376;28;20103;-38
2021/07/29 10:25:52;;;;;;;7.75;2.08;;;21.30;48.90;;;;;;5053793;28;20025;-37
2021/07/29 10:28:26;;;;;;;10.68;2.30;;;22.30;47.40;;;;;;5053891;28;20108;-38
2021/07/29 10:30:53;;;;;;;4.38;2.10;;;20.80;49.50;;;;;;5053120;28;20045;-36
2021/07/29 10:33:21;;;;;;;8.77;2.88;;;20.40;51.30;;;;;;5053416;28;20033;-36
2021/07/29 10:35:47;;;;;;;6.38;1.95;;;20.10;52.20;;;;;;5053898;28;20028;-36
2021/07/29 10:38:14;;;;;;;5.35;1.80;;;20.80;50.10;;;;;;5035742;28;20025;-36
2021/07/29 10:40:42;;;;;;;13.05;2.50;;;21.50;48.20;;;;;;5053330;28;20084;-36
2021/07/29 10:43:29;;;;;;;6.30;2.35;;;21.80;47.60;;;;;;5052243;28;20477;-36
2021/07/29 10:45:56;;;;;;;6.88;2.10;;;22.10;45.80;;;;;;5053231;28;20075;-36
2021/07/29 10:51:21;;;;;;;11.07;2.67;;;21.80;47.60;;;;;;5053255;28;20025;-36
2021/07/29 10:53:48;;;;;;;8.27;2.58;;;23.00;44.80;;;;;;5053262;28;20083;-37
2021/07/29 10:56:15;;;;;;;7.13;1.90;;;22.70;44.00;;;;;;5052944;28;20033;-36
2021/07/29 10:58:46;;;;;;;7.90;1.85;;;21.70;46.00;;;;;;5053337;28;20067;-37
2021/07/29 11:01:14;;;;;;;10.63;2.13;;;21.90;44.90;;;;;;5053643;28;20041;-37
2021/07/29 11:03:52;;;;;;;4.80;1.80;;;22.40;44.50;;;;;;5053422;28;20460;-36
2021/07/29 11:06:25;;;;;;;3.15;1.40;;;23.40;40.70;;;;;;5053413;28;20492;-36
2021/07/29 11:08:51;;;;;;;3.58;1.95;;;24.00;40.10;;;;;;5053303;28;20025;-36
2021/07/29 11:11:23;;;;;;;6.63;2.08;;;23.30;41.10;;;;;;5052872;28;20064;-36
2021/07/29 11:13:50;;;;;;;8.25;2.13;;;22.80;41.80;;;;;;5052514;28;20029;-37
2021/07/29 11:16:16;;;;;;;4.75;2.92;;;22.90;41.60;;;;;;5053321;28;20021;-36
2021/07/29 11:18:58;;;;;;;9.60;2.53;;;22.60;42.50;;;;;;5053226;28;20433;-37
2021/07/29 11:21:23;;;;;;;5.10;2.33;;;22.90;43.00;;;;;;5052913;28;20079;-37
2021/07/29 11:23:49;;;;;;;4.85;1.67;;;24.10;40.70;;;;;;5053556;28;20037;-37
2021/07/29 11:26:15;;;;;;;5.18;2.10;;;22.50;42.20;;;;;;5053017;28;20389;-37
2021/07/29 11:28:40;;;;;;;11.20;2.47;;;22.20;43.80;;;;;;5052379;28;20040;-37
2021/07/29 11:31:06;;;;;;;8.63;2.80;;;22.40;42.70;;;;;;5052467;28;20048;-37
2021/07/29 11:33:32;;;;;;;7.80;2.22;;;22.40;43.00;;;;;;5051484;28;20071;-37
2021/07/29 11:36:09;;;;;;;6.53;1.83;;;22.60;43.10;;;;;;5052887;28;20044;-37
2021/07/29 11:38:36;;;;;;;5.93;2.40;;;22.00;45.00;;;;;;5035124;28;20097;-37
2021/07/29 11:41:03;;;;;;;8.82;2.10;;;21.70;45.20;;;;;;5052511;28;20024;-37
2021/07/29 11:43:33;;;;;;;5.10;1.98;;;22.50;43.70;;;;;;5053458;28;20059;-38
2021/07/29 11:46:05;;;;;;;10.10;2.47;;;22.10;43.80;;;;;;5052949;28;20043;-37
2021/07/29 11:48:30;;;;;;;3.53;1.98;;;22.50;43.00;;;;;;5052984;28;20100;-37
2021/07/29 11:50:56;;;;;;;3.35;1.52;;;21.80;43.90;;;;;;5050843;28;20057;-37
2021/07/29 11:53:37;;;;;;;6.78;2.03;;;21.30;44.80;;;;;;5051247;28;20408;-37
2021/07/29 11:56:03;;;;;;;1.77;1.63;;;21.60;43.90;;;;;;5052729;28;20021;-36
2021/07/29 11:58:29;;;;;;;9.27;2.03;;;22.30;42.50;;;;;;5050872;28;20051;-36
2021/07/29 12:00:54;;;;;;;6.40;2.80;;;21.50;44.10;;;;;;5052797;28;20119;-36
2021/07/29 12:03:34;;;;;;;6.50;2.17;;;21.20;45.70;;;;;;5051204;28;20124;-37
2021/07/29 12:06:01;;;;;;;5.28;2.08;;;20.90;46.70;;;;;;5051226;28;20021;-36
2021/07/29 12:08:28;;;;;;;5.93;2.30;;;21.10;47.20;;;;;;5051757;28;20031;-36
2021/07/29 12:10:57;;;;;;;8.68;2.47;;;21.30;46.50;;;;;;5052615;28;20099;-37
2021/07/29 12:13:24;;;;;;;5.47;2.60;;;21.00;45.80;;;;;;5052684;28;20025;-37
2021/07/29 12:15:52;;;;;;;4.05;1.50;;;21.40;45.40;;;;;;5053080;28;20429;-37
2021/07/29 12:18:19;;;;;;;4.95;1.70;;;21.60;44.60;;;;;;5050635;28;20025;-37
2021/07/29 12:20:53;;;;;;;4.72;1.67;;;21.80;43.20;;;;;;5052286;28;20071;-37
2021/07/29 12:23:19;;;;;;;12.00;2.90;;;21.40;43.00;;;;;;5051988;28;20025;-37
2021/07/29 12:25:46;;;;;;;7.75;2.00;;;22.70;42.00;;;;;;5052459;28;20477;-37
2021/07/29 12:28:13;;;;;;;7.70;1.73;;;22.90;41.70;;;;;;5052772;28;20089;-36
2021/07/29 12:30:43;;;;;;;7.70;2.13;;;23.30;40.70;;;;;;5051650;28;20072;-37
2021/07/29 12:33:09;;;;;;;;;;;23.60;41.10;;;;;;5051100;28;20029;-38
2021/07/29 12:35:36;;;;;;;6.20;2.38;;;23.40;39.70;;;;;;5052280;28;19916;-37
2021/07/29 12:38:02;;;;;;;4.75;1.75;;;22.50;40.20;;;;;;5050758;28;20021;-37
2021/07/29 12:40:32;;;;;;;8.60;1.65;;;22.20;41.90;;;;;;5052139;28;20029;-36
2021/07/29 12:43:22;;;;;;;8.27;2.15;;;21.80;42.10;;;;;;5050566;28;20569;-38
2021/07/29 12:46:06;;;;;;;4.50;2.15;;;22.10;41.90;;;;;;5050933;28;20021;-37
2021/07/29 12:48:58;;;;;;;7.78;2.10;;;21.60;43.70;;;;;;5052013;28;20124;-36
2021/07/29 12:51:39;;;;;;;5.05;1.92;;;21.50;44.10;;;;;;5051875;28;20333;-37
2021/07/29 12:54:07;;;;;;;4.88;2.08;;;22.00;43.10;;;;;;5051674;28;20485;-37
2021/07/29 12:56:33;;;;;;;3.63;1.88;;;22.80;42.50;;;;;;5052004;28;20025;-36